sensor_id;sensor_type;location;lat;lon;timestamp;P1;durP1;ratioP1;P2;durP2;ratioP2
13975;SDS011;7062;49.792;9.946;2024-03-08T00:00:10;18.70;;;14.83;;
13975;SDS011;7062;49.792;9.946;2024-03-08T00:02:40;18.13;;;15.25;;
13975;SDS011;7062;49.792;9.946;2024-03-08T00:05:07;18.53;;;15.90;;
13975;SDS011;7062;49.792;9.946;2024-03-08T00:07:36;20.85;;;16.17;;
13975;SDS011;7062;49.792;9.946;2024-03-08T00:10:06;18.60;;;14.43;;
13975;SDS011;7062;49.792;9.946;2024-03-08T00:12:36;23.13;;;14.73;;
13975;SDS011;7062;49.792;9.946;2024-03-08T00:15:02;20.50;;;15.33;;
13975;SDS011;7062;49.792;9.946;2024-03-08T00:17:28;16.00;;;14.10;;
13975;SDS011;7062;49.792;9.946;2024-03-08T00:19:53;20.57;;;14.30;;
13975;SDS011;7062;49.792;9.946;2024-03-08T00:22:19;21.03;;;15.43;;
13975;SDS011;7062;49.792;9.946;2024-03-08T00:24:45;18.10;;;15.00;;
13975;SDS011;7062;49.792;9.946;2024-03-08T00:27:10;18.83;;;15.20;;
13975;SDS011;7062;49.792;9.946;2024-03-08T00:29:36;18.97;;;14.30;;
13975;SDS011;7062;49.792;9.946;2024-03-08T00:32:04;18.70;;;15.00;;
13975;SDS011;7062;49.792;9.946;2024-03-08T00:34:29;16.43;;;14.70;;
13975;SDS011;7062;49.792;9.946;2024-03-08T00:36:56;18.47;;;14.80;;
13975;SDS011;7062;49.792;9.946;2024-03-08T00:39:23;19.73;;;14.63;;
13975;SDS011;7062;49.792;9.946;2024-03-08T00:41:49;17.07;;;14.43;;
13975;SDS011;7062;49.792;9.946;2024-03-08T00:44:14;16.97;;;13.83;;
13975;SDS011;7062;49.792;9.946;2024-03-08T00:46:40;18.20;;;14.53;;
13975;SDS011;7062;49.792;9.946;2024-03-08T00:49:05;16.47;;;13.83;;
13975;SDS011;7062;49.792;9.946;2024-03-08T00:51:32;19.77;;;14.77;;
13975;SDS011;7062;49.792;9.946;2024-03-08T00:53:57;16.30;;;14.53;;
13975;SDS011;7062;49.792;9.946;2024-03-08T00:56:23;17.97;;;14.37;;
13975;SDS011;7062;49.792;9.946;2024-03-08T00:58:50;19.33;;;15.27;;
13975;SDS011;7062;49.792;9.946;2024-03-08T01:01:16;16.33;;;14.60;;
13975;SDS011;7062;49.792;9.946;2024-03-08T01:03:44;20.07;;;15.73;;
13975;SDS011;7062;49.792;9.946;2024-03-08T01:06:10;16.50;;;14.40;;
13975;SDS011;7062;49.792;9.946;2024-03-08T01:08:36;19.97;;;13.97;;
13975;SDS011;7062;49.792;9.946;2024-03-08T01:11:03;17.20;;;14.63;;
13975;SDS011;7062;49.792;9.946;2024-03-08T01:13:30;18.90;;;15.00;;
13975;SDS011;7062;49.792;9.946;2024-03-08T01:15:56;16.45;;;14.45;;
13975;SDS011;7062;49.792;9.946;2024-03-08T01:18:21;18.23;;;14.97;;
13975;SDS011;7062;49.792;9.946;2024-03-08T01:20:47;19.20;;;15.33;;
13975;SDS011;7062;49.792;9.946;2024-03-08T01:23:13;19.20;;;16.30;;
13975;SDS011;7062;49.792;9.946;2024-03-08T01:25:38;18.90;;;15.03;;
13975;SDS011;7062;49.792;9.946;2024-03-08T01:28:04;19.93;;;15.10;;
13975;SDS011;7062;49.792;9.946;2024-03-08T01:30:30;22.63;;;15.17;;
13975;SDS011;7062;49.792;9.946;2024-03-08T01:32:57;18.85;;;14.70;;
13975;SDS011;7062;49.792;9.946;2024-03-08T01:35:23;15.83;;;14.13;;
13975;SDS011;7062;49.792;9.946;2024-03-08T01:37:49;17.83;;;15.30;;
13975;SDS011;7062;49.792;9.946;2024-03-08T01:40:15;18.57;;;14.93;;
13975;SDS011;7062;49.792;9.946;2024-03-08T01:42:41;18.67;;;14.55;;
13975;SDS011;7062;49.792;9.946;2024-03-08T01:45:07;20.23;;;15.23;;
13975;SDS011;7062;49.792;9.946;2024-03-08T01:47:34;17.23;;;14.52;;
13975;SDS011;7062;49.792;9.946;2024-03-08T01:50:00;21.60;;;16.77;;
13975;SDS011;7062;49.792;9.946;2024-03-08T01:52:31;18.50;;;15.80;;
13975;SDS011;7062;49.792;9.946;2024-03-08T01:54:59;21.15;;;15.23;;
13975;SDS011;7062;49.792;9.946;2024-03-08T01:57:27;19.55;;;15.48;;
13975;SDS011;7062;49.792;9.946;2024-03-08T01:59:53;18.55;;;16.02;;
13975;SDS011;7062;49.792;9.946;2024-03-08T02:02:20;20.60;;;14.80;;
13975;SDS011;7062;49.792;9.946;2024-03-08T02:04:47;18.20;;;15.52;;
13975;SDS011;7062;49.792;9.946;2024-03-08T02:07:13;19.02;;;15.75;;
13975;SDS011;7062;49.792;9.946;2024-03-08T02:09:39;22.23;;;15.77;;
13975;SDS011;7062;49.792;9.946;2024-03-08T02:12:04;18.23;;;14.70;;
13975;SDS011;7062;49.792;9.946;2024-03-08T02:14:30;18.30;;;15.27;;
13975;SDS011;7062;49.792;9.946;2024-03-08T02:17:00;18.27;;;15.07;;
13975;SDS011;7062;49.792;9.946;2024-03-08T02:19:26;17.63;;;13.93;;
13975;SDS011;7062;49.792;9.946;2024-03-08T02:21:51;17.87;;;14.60;;
13975;SDS011;7062;49.792;9.946;2024-03-08T02:24:18;18.63;;;15.23;;
13975;SDS011;7062;49.792;9.946;2024-03-08T02:26:44;19.17;;;15.30;;
13975;SDS011;7062;49.792;9.946;2024-03-08T02:29:10;21.37;;;16.50;;
13975;SDS011;7062;49.792;9.946;2024-03-08T02:31:35;22.00;;;16.03;;
13975;SDS011;7062;49.792;9.946;2024-03-08T02:34:01;19.80;;;16.43;;
13975;SDS011;7062;49.792;9.946;2024-03-08T02:36:27;18.90;;;15.60;;
13975;SDS011;7062;49.792;9.946;2024-03-08T02:38:52;19.50;;;15.53;;
13975;SDS011;7062;49.792;9.946;2024-03-08T02:41:20;19.70;;;15.90;;
13975;SDS011;7062;49.792;9.946;2024-03-08T02:43:46;18.33;;;14.80;;
13975;SDS011;7062;49.792;9.946;2024-03-08T02:46:11;21.57;;;16.37;;
13975;SDS011;7062;49.792;9.946;2024-03-08T02:48:37;20.13;;;15.43;;
13975;SDS011;7062;49.792;9.946;2024-03-08T02:51:04;19.23;;;16.67;;
13975;SDS011;7062;49.792;9.946;2024-03-08T02:53:31;19.23;;;15.80;;
13975;SDS011;7062;49.792;9.946;2024-03-08T02:55:56;20.03;;;15.93;;
13975;SDS011;7062;49.792;9.946;2024-03-08T02:58:22;21.07;;;16.40;;
13975;SDS011;7062;49.792;9.946;2024-03-08T03:00:48;21.97;;;15.53;;
13975;SDS011;7062;49.792;9.946;2024-03-08T03:03:13;24.97;;;17.27;;
13975;SDS011;7062;49.792;9.946;2024-03-08T03:05:39;21.60;;;16.43;;
13975;SDS011;7062;49.792;9.946;2024-03-08T03:08:08;21.30;;;15.77;;
13975;SDS011;7062;49.792;9.946;2024-03-08T03:10:35;20.27;;;15.80;;
13975;SDS011;7062;49.792;9.946;2024-03-08T03:13:01;21.42;;;15.98;;
13975;SDS011;7062;49.792;9.946;2024-03-08T03:15:26;19.83;;;16.73;;
13975;SDS011;7062;49.792;9.946;2024-03-08T03:17:52;22.83;;;17.77;;
13975;SDS011;7062;49.792;9.946;2024-03-08T03:20:18;21.90;;;16.50;;
13975;SDS011;7062;49.792;9.946;2024-03-08T03:22:58;22.92;;;16.70;;
13975;SDS011;7062;49.792;9.946;2024-03-08T03:25:26;23.73;;;16.85;;
13975;SDS011;7062;49.792;9.946;2024-03-08T03:27:58;24.00;;;17.50;;
13975;SDS011;7062;49.792;9.946;2024-03-08T03:30:24;22.00;;;15.93;;
13975;SDS011;7062;49.792;9.946;2024-03-08T03:32:52;21.73;;;16.50;;
13975;SDS011;7062;49.792;9.946;2024-03-08T03:35:19;21.85;;;17.50;;
13975;SDS011;7062;49.792;9.946;2024-03-08T03:37:49;21.92;;;17.67;;
13975;SDS011;7062;49.792;9.946;2024-03-08T03:40:29;19.55;;;16.38;;
13975;SDS011;7062;49.792;9.946;2024-03-08T03:42:56;21.77;;;16.35;;
13975;SDS011;7062;49.792;9.946;2024-03-08T03:45:22;22.63;;;18.43;;
13975;SDS011;7062;49.792;9.946;2024-03-08T03:47:48;21.17;;;17.63;;
13975;SDS011;7062;49.792;9.946;2024-03-08T03:50:14;22.73;;;17.23;;
13975;SDS011;7062;49.792;9.946;2024-03-08T03:52:39;21.33;;;17.57;;
13975;SDS011;7062;49.792;9.946;2024-03-08T03:55:07;22.90;;;17.45;;
13975;SDS011;7062;49.792;9.946;2024-03-08T03:57:33;23.40;;;17.42;;
13975;SDS011;7062;49.792;9.946;2024-03-08T03:59:58;20.07;;;17.30;;
13975;SDS011;7062;49.792;9.946;2024-03-08T04:02:24;25.73;;;17.63;;
13975;SDS011;7062;49.792;9.946;2024-03-08T04:04:51;23.60;;;18.70;;
13975;SDS011;7062;49.792;9.946;2024-03-08T04:07:17;20.95;;;16.90;;
13975;SDS011;7062;49.792;9.946;2024-03-08T04:09:43;22.87;;;17.40;;
13975;SDS011;7062;49.792;9.946;2024-03-08T04:12:09;24.60;;;17.90;;
13975;SDS011;7062;49.792;9.946;2024-03-08T04:14:34;20.27;;;16.07;;
13975;SDS011;7062;49.792;9.946;2024-03-08T04:17:00;23.58;;;17.75;;
13975;SDS011;7062;49.792;9.946;2024-03-08T04:19:27;25.02;;;18.90;;
13975;SDS011;7062;49.792;9.946;2024-03-08T04:21:53;23.20;;;18.07;;
13975;SDS011;7062;49.792;9.946;2024-03-08T04:24:19;23.87;;;17.87;;
13975;SDS011;7062;49.792;9.946;2024-03-08T04:26:45;24.57;;;17.57;;
13975;SDS011;7062;49.792;9.946;2024-03-08T04:29:11;21.10;;;17.13;;
13975;SDS011;7062;49.792;9.946;2024-03-08T04:31:39;24.33;;;17.60;;
13975;SDS011;7062;49.792;9.946;2024-03-08T04:34:05;27.83;;;18.88;;
13975;SDS011;7062;49.792;9.946;2024-03-08T04:36:31;23.10;;;17.73;;
13975;SDS011;7062;49.792;9.946;2024-03-08T04:38:59;21.48;;;17.25;;
13975;SDS011;7062;49.792;9.946;2024-03-08T04:41:25;20.95;;;16.13;;
13975;SDS011;7062;49.792;9.946;2024-03-08T04:43:51;24.20;;;18.80;;
13975;SDS011;7062;49.792;9.946;2024-03-08T04:46:17;22.45;;;17.45;;
13975;SDS011;7062;49.792;9.946;2024-03-08T04:48:43;24.70;;;17.87;;
13975;SDS011;7062;49.792;9.946;2024-03-08T04:51:08;22.73;;;18.17;;
13975;SDS011;7062;49.792;9.946;2024-03-08T04:53:35;21.85;;;16.45;;
13975;SDS011;7062;49.792;9.946;2024-03-08T04:56:00;22.43;;;16.97;;
13975;SDS011;7062;49.792;9.946;2024-03-08T04:58:31;23.40;;;17.35;;
13975;SDS011;7062;49.792;9.946;2024-03-08T05:00:59;23.45;;;17.40;;
13975;SDS011;7062;49.792;9.946;2024-03-08T05:03:25;21.88;;;17.48;;
13975;SDS011;7062;49.792;9.946;2024-03-08T05:05:51;27.57;;;17.73;;
13975;SDS011;7062;49.792;9.946;2024-03-08T05:08:17;23.07;;;18.87;;
13975;SDS011;7062;49.792;9.946;2024-03-08T05:10:43;22.80;;;17.88;;
13975;SDS011;7062;49.792;9.946;2024-03-08T05:13:09;25.20;;;17.93;;
13975;SDS011;7062;49.792;9.946;2024-03-08T05:15:35;21.43;;;17.83;;
13975;SDS011;7062;49.792;9.946;2024-03-08T05:18:01;19.80;;;16.88;;
13975;SDS011;7062;49.792;9.946;2024-03-08T05:20:27;21.60;;;18.13;;
13975;SDS011;7062;49.792;9.946;2024-03-08T05:22:53;25.93;;;18.87;;
13975;SDS011;7062;49.792;9.946;2024-03-08T05:25:18;23.93;;;17.37;;
13975;SDS011;7062;49.792;9.946;2024-03-08T05:27:44;23.17;;;17.50;;
13975;SDS011;7062;49.792;9.946;2024-03-08T05:30:09;21.67;;;17.87;;
13975;SDS011;7062;49.792;9.946;2024-03-08T05:32:40;20.08;;;16.88;;
13975;SDS011;7062;49.792;9.946;2024-03-08T05:35:10;24.88;;;18.35;;
13975;SDS011;7062;49.792;9.946;2024-03-08T05:37:37;25.17;;;19.38;;
13975;SDS011;7062;49.792;9.946;2024-03-08T05:40:04;24.13;;;18.42;;
13975;SDS011;7062;49.792;9.946;2024-03-08T05:42:34;27.33;;;18.58;;
13975;SDS011;7062;49.792;9.946;2024-03-08T05:45:00;26.40;;;18.05;;
13975;SDS011;7062;49.792;9.946;2024-03-08T05:47:25;22.67;;;17.10;;
13975;SDS011;7062;49.792;9.946;2024-03-08T05:49:51;24.90;;;19.00;;
13975;SDS011;7062;49.792;9.946;2024-03-08T05:52:18;24.08;;;18.27;;
13975;SDS011;7062;49.792;9.946;2024-03-08T05:54:44;21.87;;;17.60;;
13975;SDS011;7062;49.792;9.946;2024-03-08T05:57:11;25.15;;;19.45;;
13975;SDS011;7062;49.792;9.946;2024-03-08T05:59:36;24.07;;;17.63;;
13975;SDS011;7062;49.792;9.946;2024-03-08T06:02:02;24.93;;;18.20;;
13975;SDS011;7062;49.792;9.946;2024-03-08T06:04:28;25.13;;;18.73;;
13975;SDS011;7062;49.792;9.946;2024-03-08T06:06:54;23.47;;;19.07;;
13975;SDS011;7062;49.792;9.946;2024-03-08T06:09:23;26.35;;;19.13;;
13975;SDS011;7062;49.792;9.946;2024-03-08T06:11:49;24.23;;;18.48;;
13975;SDS011;7062;49.792;9.946;2024-03-08T06:14:16;23.95;;;17.58;;
13975;SDS011;7062;49.792;9.946;2024-03-08T06:16:46;22.98;;;18.58;;
13975;SDS011;7062;49.792;9.946;2024-03-08T06:19:15;26.92;;;19.63;;
13975;SDS011;7062;49.792;9.946;2024-03-08T06:21:40;22.17;;;18.27;;
13975;SDS011;7062;49.792;9.946;2024-03-08T06:24:06;21.13;;;16.70;;
13975;SDS011;7062;49.792;9.946;2024-03-08T06:26:32;23.53;;;18.40;;
13975;SDS011;7062;49.792;9.946;2024-03-08T06:28:57;27.20;;;19.80;;
13975;SDS011;7062;49.792;9.946;2024-03-08T06:31:23;23.23;;;18.40;;
13975;SDS011;7062;49.792;9.946;2024-03-08T06:33:49;20.53;;;17.47;;
13975;SDS011;7062;49.792;9.946;2024-03-08T06:36:18;25.37;;;19.17;;
13975;SDS011;7062;49.792;9.946;2024-03-08T06:38:45;25.67;;;19.23;;
13975;SDS011;7062;49.792;9.946;2024-03-08T06:41:11;25.90;;;19.40;;
13975;SDS011;7062;49.792;9.946;2024-03-08T06:43:46;25.45;;;19.45;;
13975;SDS011;7062;49.792;9.946;2024-03-08T06:46:14;25.50;;;18.77;;
13975;SDS011;7062;49.792;9.946;2024-03-08T06:48:40;26.90;;;18.60;;
13975;SDS011;7062;49.792;9.946;2024-03-08T06:51:06;26.53;;;20.67;;
13975;SDS011;7062;49.792;9.946;2024-03-08T06:53:32;24.38;;;20.15;;
13975;SDS011;7062;49.792;9.946;2024-03-08T06:56:00;26.25;;;20.30;;
13975;SDS011;7062;49.792;9.946;2024-03-08T06:58:26;24.73;;;19.67;;
13975;SDS011;7062;49.792;9.946;2024-03-08T07:00:52;27.27;;;19.33;;
13975;SDS011;7062;49.792;9.946;2024-03-08T07:03:18;26.40;;;19.60;;
13975;SDS011;7062;49.792;9.946;2024-03-08T07:05:44;24.53;;;19.10;;
13975;SDS011;7062;49.792;9.946;2024-03-08T07:08:10;24.53;;;19.17;;
13975;SDS011;7062;49.792;9.946;2024-03-08T07:10:39;25.30;;;20.73;;
13975;SDS011;7062;49.792;9.946;2024-03-08T07:13:06;25.38;;;20.00;;
13975;SDS011;7062;49.792;9.946;2024-03-08T07:15:32;29.30;;;20.90;;
13975;SDS011;7062;49.792;9.946;2024-03-08T07:17:58;23.37;;;20.03;;
13975;SDS011;7062;49.792;9.946;2024-03-08T07:20:24;25.88;;;19.83;;
13975;SDS011;7062;49.792;9.946;2024-03-08T07:22:50;29.07;;;19.70;;
13975;SDS011;7062;49.792;9.946;2024-03-08T07:25:16;23.30;;;19.63;;
13975;SDS011;7062;49.792;9.946;2024-03-08T07:27:50;26.15;;;19.30;;
13975;SDS011;7062;49.792;9.946;2024-03-08T07:30:17;29.27;;;20.50;;
13975;SDS011;7062;49.792;9.946;2024-03-08T07:33:01;26.58;;;18.88;;
13975;SDS011;7062;49.792;9.946;2024-03-08T07:35:27;24.33;;;18.58;;
13975;SDS011;7062;49.792;9.946;2024-03-08T07:37:53;24.75;;;20.15;;
13975;SDS011;7062;49.792;9.946;2024-03-08T07:40:20;29.02;;;19.45;;
13975;SDS011;7062;49.792;9.946;2024-03-08T07:42:46;28.27;;;19.02;;
13975;SDS011;7062;49.792;9.946;2024-03-08T07:45:11;26.30;;;19.40;;
13975;SDS011;7062;49.792;9.946;2024-03-08T07:47:37;27.73;;;20.07;;
13975;SDS011;7062;49.792;9.946;2024-03-08T07:50:03;26.50;;;20.80;;
13975;SDS011;7062;49.792;9.946;2024-03-08T07:52:29;28.48;;;21.60;;
13975;SDS011;7062;49.792;9.946;2024-03-08T07:54:55;25.20;;;19.27;;
13975;SDS011;7062;49.792;9.946;2024-03-08T07:57:21;25.33;;;19.77;;
13975;SDS011;7062;49.792;9.946;2024-03-08T07:59:47;25.07;;;20.70;;
13975;SDS011;7062;49.792;9.946;2024-03-08T08:02:12;27.27;;;21.03;;
13975;SDS011;7062;49.792;9.946;2024-03-08T08:04:38;29.67;;;21.80;;
13975;SDS011;7062;49.792;9.946;2024-03-08T08:07:04;26.70;;;20.70;;
13975;SDS011;7062;49.792;9.946;2024-03-08T08:09:29;29.47;;;20.77;;
13975;SDS011;7062;49.792;9.946;2024-03-08T08:11:59;29.40;;;21.57;;
13975;SDS011;7062;49.792;9.946;2024-03-08T08:14:27;27.00;;;19.73;;
13975;SDS011;7062;49.792;9.946;2024-03-08T08:16:54;24.92;;;19.63;;
13975;SDS011;7062;49.792;9.946;2024-03-08T08:19:22;28.33;;;21.50;;
13975;SDS011;7062;49.792;9.946;2024-03-08T08:21:48;28.97;;;20.33;;
13975;SDS011;7062;49.792;9.946;2024-03-08T08:24:14;24.03;;;21.03;;
13975;SDS011;7062;49.792;9.946;2024-03-08T08:26:40;29.33;;;20.90;;
13975;SDS011;7062;49.792;9.946;2024-03-08T08:29:06;24.67;;;19.60;;
13975;SDS011;7062;49.792;9.946;2024-03-08T08:31:32;29.27;;;21.17;;
13975;SDS011;7062;49.792;9.946;2024-03-08T08:33:58;28.43;;;20.97;;
13975;SDS011;7062;49.792;9.946;2024-03-08T08:36:24;33.23;;;20.67;;
13975;SDS011;7062;49.792;9.946;2024-03-08T08:38:50;28.07;;;21.10;;
13975;SDS011;7062;49.792;9.946;2024-03-08T08:41:19;23.63;;;19.27;;
13975;SDS011;7062;49.792;9.946;2024-03-08T08:43:46;29.37;;;20.67;;
13975;SDS011;7062;49.792;9.946;2024-03-08T08:46:11;29.00;;;20.20;;
13975;SDS011;7062;49.792;9.946;2024-03-08T08:48:38;27.93;;;19.53;;
13975;SDS011;7062;49.792;9.946;2024-03-08T08:51:06;24.97;;;18.87;;
13975;SDS011;7062;49.792;9.946;2024-03-08T08:53:37;25.40;;;20.07;;
13975;SDS011;7062;49.792;9.946;2024-03-08T08:56:05;29.00;;;20.30;;
13975;SDS011;7062;49.792;9.946;2024-03-08T08:58:33;24.10;;;19.03;;
13975;SDS011;7062;49.792;9.946;2024-03-08T09:00:58;21.60;;;18.20;;
13975;SDS011;7062;49.792;9.946;2024-03-08T09:03:24;24.33;;;17.73;;
13975;SDS011;7062;49.792;9.946;2024-03-08T09:05:52;24.60;;;19.23;;
13975;SDS011;7062;49.792;9.946;2024-03-08T09:08:18;26.87;;;19.67;;
13975;SDS011;7062;49.792;9.946;2024-03-08T09:10:44;25.03;;;18.23;;
13975;SDS011;7062;49.792;9.946;2024-03-08T09:13:09;24.23;;;17.73;;
13975;SDS011;7062;49.792;9.946;2024-03-08T09:15:36;21.80;;;17.53;;
13975;SDS011;7062;49.792;9.946;2024-03-08T09:18:03;24.43;;;18.27;;
13975;SDS011;7062;49.792;9.946;2024-03-08T09:20:31;20.87;;;18.77;;
13975;SDS011;7062;49.792;9.946;2024-03-08T09:22:57;19.97;;;17.53;;
13975;SDS011;7062;49.792;9.946;2024-03-08T09:25:23;19.60;;;17.47;;
13975;SDS011;7062;49.792;9.946;2024-03-08T09:27:48;21.23;;;18.00;;
13975;SDS011;7062;49.792;9.946;2024-03-08T09:30:14;20.87;;;18.67;;
13975;SDS011;7062;49.792;9.946;2024-03-08T09:32:40;22.17;;;18.23;;
13975;SDS011;7062;49.792;9.946;2024-03-08T09:35:06;17.87;;;15.97;;
13975;SDS011;7062;49.792;9.946;2024-03-08T09:37:33;17.37;;;15.17;;
13975;SDS011;7062;49.792;9.946;2024-03-08T09:39:59;18.80;;;15.53;;
13975;SDS011;7062;49.792;9.946;2024-03-08T09:42:25;18.43;;;16.07;;
13975;SDS011;7062;49.792;9.946;2024-03-08T09:44:51;16.93;;;15.03;;
13975;SDS011;7062;49.792;9.946;2024-03-08T09:47:17;16.87;;;15.17;;
13975;SDS011;7062;49.792;9.946;2024-03-08T09:49:43;17.63;;;14.37;;
13975;SDS011;7062;49.792;9.946;2024-03-08T09:52:09;18.07;;;16.23;;
13975;SDS011;7062;49.792;9.946;2024-03-08T09:54:35;17.57;;;14.57;;
13975;SDS011;7062;49.792;9.946;2024-03-08T09:57:03;16.83;;;15.03;;
13975;SDS011;7062;49.792;9.946;2024-03-08T09:59:29;15.53;;;14.00;;
13975;SDS011;7062;49.792;9.946;2024-03-08T10:02:12;16.13;;;14.57;;
13975;SDS011;7062;49.792;9.946;2024-03-08T10:04:40;15.93;;;14.30;;
13975;SDS011;7062;49.792;9.946;2024-03-08T10:07:11;15.60;;;14.00;;
13975;SDS011;7062;49.792;9.946;2024-03-08T10:09:37;17.77;;;15.73;;
13975;SDS011;7062;49.792;9.946;2024-03-08T10:12:04;16.90;;;15.13;;
13975;SDS011;7062;49.792;9.946;2024-03-08T10:14:30;16.07;;;13.80;;
13975;SDS011;7062;49.792;9.946;2024-03-08T10:16:57;16.43;;;14.73;;
13975;SDS011;7062;49.792;9.946;2024-03-08T10:19:25;17.37;;;15.60;;
13975;SDS011;7062;49.792;9.946;2024-03-08T10:21:52;17.13;;;15.23;;
13975;SDS011;7062;49.792;9.946;2024-03-08T10:24:22;16.90;;;15.13;;
13975;SDS011;7062;49.792;9.946;2024-03-08T10:26:52;15.93;;;13.80;;
13975;SDS011;7062;49.792;9.946;2024-03-08T10:29:18;17.70;;;13.63;;
13975;SDS011;7062;49.792;9.946;2024-03-08T10:31:44;16.63;;;15.00;;
13975;SDS011;7062;49.792;9.946;2024-03-08T10:34:10;16.03;;;14.40;;
13975;SDS011;7062;49.792;9.946;2024-03-08T10:36:36;15.23;;;13.77;;
13975;SDS011;7062;49.792;9.946;2024-03-08T10:39:03;17.33;;;15.73;;
13975;SDS011;7062;49.792;9.946;2024-03-08T10:41:58;17.70;;;16.00;;
13975;SDS011;7062;49.792;9.946;2024-03-08T10:49:45;17.53;;;14.60;;
13975;SDS011;7062;49.792;9.946;2024-03-08T10:52:35;16.47;;;14.93;;
13975;SDS011;7062;49.792;9.946;2024-03-08T10:55:02;16.70;;;15.10;;
13975;SDS011;7062;49.792;9.946;2024-03-08T10:57:28;16.13;;;14.50;;
13975;SDS011;7062;49.792;9.946;2024-03-08T10:59:54;18.17;;;14.50;;
13975;SDS011;7062;49.792;9.946;2024-03-08T11:02:20;17.90;;;14.97;;
13975;SDS011;7062;49.792;9.946;2024-03-08T11:04:46;15.83;;;14.20;;
13975;SDS011;7062;49.792;9.946;2024-03-08T11:07:14;15.17;;;13.57;;
13975;SDS011;7062;49.792;9.946;2024-03-08T11:09:43;16.57;;;14.87;;
13975;SDS011;7062;49.792;9.946;2024-03-08T11:12:28;15.50;;;14.00;;
13975;SDS011;7062;49.792;9.946;2024-03-08T11:14:55;16.50;;;15.00;;
13975;SDS011;7062;49.792;9.946;2024-03-08T11:19:54;16.50;;;14.93;;
13975;SDS011;7062;49.792;9.946;2024-03-08T11:22:47;16.40;;;14.60;;
13975;SDS011;7062;49.792;9.946;2024-03-08T11:25:30;16.50;;;14.70;;
13975;SDS011;7062;49.792;9.946;2024-03-08T11:33:31;16.40;;;14.80;;
13975;SDS011;7062;49.792;9.946;2024-03-08T11:38:47;15.63;;;13.83;;
13975;SDS011;7062;49.792;9.946;2024-03-08T11:41:16;15.23;;;13.80;;
13975;SDS011;7062;49.792;9.946;2024-03-08T11:43:44;16.53;;;14.93;;
13975;SDS011;7062;49.792;9.946;2024-03-08T11:46:10;16.03;;;14.43;;
13975;SDS011;7062;49.792;9.946;2024-03-08T11:48:40;15.87;;;14.27;;
13975;SDS011;7062;49.792;9.946;2024-03-08T11:51:12;15.47;;;13.97;;
13975;SDS011;7062;49.792;9.946;2024-03-08T11:53:38;15.93;;;14.40;;
13975;SDS011;7062;49.792;9.946;2024-03-08T11:56:09;15.97;;;14.53;;
13975;SDS011;7062;49.792;9.946;2024-03-08T11:58:36;16.37;;;14.77;;
13975;SDS011;7062;49.792;9.946;2024-03-08T12:01:03;15.57;;;14.17;;
13975;SDS011;7062;49.792;9.946;2024-03-08T12:03:34;16.37;;;14.77;;
13975;SDS011;7062;49.792;9.946;2024-03-08T12:06:00;15.60;;;14.10;;
13975;SDS011;7062;49.792;9.946;2024-03-08T12:08:28;15.30;;;13.90;;
13975;SDS011;7062;49.792;9.946;2024-03-08T12:10:56;15.93;;;14.53;;
13975;SDS011;7062;49.792;9.946;2024-03-08T12:13:27;15.97;;;14.37;;
13975;SDS011;7062;49.792;9.946;2024-03-08T12:15:58;15.53;;;14.13;;
13975;SDS011;7062;49.792;9.946;2024-03-08T12:18:24;15.13;;;13.83;;
13975;SDS011;7062;49.792;9.946;2024-03-08T12:20:51;14.00;;;12.77;;
13975;SDS011;7062;49.792;9.946;2024-03-08T12:23:17;14.57;;;13.23;;
13975;SDS011;7062;49.792;9.946;2024-03-08T12:25:43;16.53;;;14.77;;
13975;SDS011;7062;49.792;9.946;2024-03-08T12:28:09;15.03;;;13.63;;
13975;SDS011;7062;49.792;9.946;2024-03-08T12:30:47;13.97;;;12.67;;
13975;SDS011;7062;49.792;9.946;2024-03-08T12:33:16;13.97;;;12.73;;
13975;SDS011;7062;49.792;9.946;2024-03-08T12:35:49;14.90;;;13.50;;
13975;SDS011;7062;49.792;9.946;2024-03-08T12:38:19;14.53;;;13.00;;
13975;SDS011;7062;49.792;9.946;2024-03-08T12:40:50;13.90;;;12.60;;
13975;SDS011;7062;49.792;9.946;2024-03-08T12:43:19;14.80;;;13.40;;
13975;SDS011;7062;49.792;9.946;2024-03-08T12:45:45;13.87;;;12.57;;
13975;SDS011;7062;49.792;9.946;2024-03-08T12:48:14;13.27;;;12.07;;
13975;SDS011;7062;49.792;9.946;2024-03-08T12:50:40;15.17;;;13.80;;
13975;SDS011;7062;49.792;9.946;2024-03-08T12:53:09;13.70;;;12.50;;
13975;SDS011;7062;49.792;9.946;2024-03-08T12:55:34;14.27;;;12.97;;
13975;SDS011;7062;49.792;9.946;2024-03-08T12:58:00;13.90;;;12.60;;
13975;SDS011;7062;49.792;9.946;2024-03-08T13:00:25;15.87;;;14.27;;
13975;SDS011;7062;49.792;9.946;2024-03-08T13:02:53;13.20;;;11.90;;
13975;SDS011;7062;49.792;9.946;2024-03-08T13:05:19;13.37;;;12.17;;
13975;SDS011;7062;49.792;9.946;2024-03-08T13:07:45;14.07;;;12.80;;
13975;SDS011;7062;49.792;9.946;2024-03-08T13:10:14;14.77;;;13.27;;
13975;SDS011;7062;49.792;9.946;2024-03-08T13:12:43;13.53;;;12.33;;
13975;SDS011;7062;49.792;9.946;2024-03-08T13:15:09;13.00;;;11.80;;
13975;SDS011;7062;49.792;9.946;2024-03-08T13:17:45;13.77;;;12.57;;
13975;SDS011;7062;49.792;9.946;2024-03-08T13:20:14;14.20;;;12.67;;
13975;SDS011;7062;49.792;9.946;2024-03-08T13:22:45;12.63;;;11.53;;
13975;SDS011;7062;49.792;9.946;2024-03-08T13:25:11;12.60;;;11.40;;
13975;SDS011;7062;49.792;9.946;2024-03-08T13:27:38;12.63;;;11.47;;
13975;SDS011;7062;49.792;9.946;2024-03-08T13:30:08;13.40;;;12.03;;
13975;SDS011;7062;49.792;9.946;2024-03-08T13:32:38;13.37;;;12.17;;
13975;SDS011;7062;49.792;9.946;2024-03-08T13:35:10;13.67;;;12.37;;
13975;SDS011;7062;49.792;9.946;2024-03-08T13:37:41;12.70;;;11.40;;
13975;SDS011;7062;49.792;9.946;2024-03-08T13:40:08;12.27;;;11.17;;
13975;SDS011;7062;49.792;9.946;2024-03-08T13:42:39;12.67;;;11.53;;
13975;SDS011;7062;49.792;9.946;2024-03-08T13:45:06;11.83;;;10.73;;
13975;SDS011;7062;49.792;9.946;2024-03-08T13:47:39;11.10;;;10.10;;
13975;SDS011;7062;49.792;9.946;2024-03-08T13:50:09;11.17;;;10.13;;
13975;SDS011;7062;49.792;9.946;2024-03-08T13:52:41;10.17;;;9.27;;
13975;SDS011;7062;49.792;9.946;2024-03-08T13:55:09;11.23;;;10.10;;
13975;SDS011;7062;49.792;9.946;2024-03-08T13:57:35;10.73;;;9.73;;
13975;SDS011;7062;49.792;9.946;2024-03-08T14:00:01;10.70;;;9.63;;
13975;SDS011;7062;49.792;9.946;2024-03-08T14:02:27;10.67;;;9.77;;
13975;SDS011;7062;49.792;9.946;2024-03-08T14:04:56;10.50;;;9.47;;
13975;SDS011;7062;49.792;9.946;2024-03-08T14:07:22;9.53;;;8.50;;
13975;SDS011;7062;49.792;9.946;2024-03-08T14:09:48;10.43;;;9.43;;
13975;SDS011;7062;49.792;9.946;2024-03-08T14:12:18;10.67;;;9.57;;
13975;SDS011;7062;49.792;9.946;2024-03-08T14:14:44;10.60;;;9.67;;
13975;SDS011;7062;49.792;9.946;2024-03-08T14:17:09;11.63;;;10.10;;
13975;SDS011;7062;49.792;9.946;2024-03-08T14:19:36;9.83;;;8.93;;
13975;SDS011;7062;49.792;9.946;2024-03-08T14:22:04;8.83;;;7.67;;
13975;SDS011;7062;49.792;9.946;2024-03-08T14:24:30;8.73;;;7.77;;
13975;SDS011;7062;49.792;9.946;2024-03-08T14:26:56;8.07;;;7.37;;
13975;SDS011;7062;49.792;9.946;2024-03-08T14:29:24;9.70;;;8.80;;
13975;SDS011;7062;49.792;9.946;2024-03-08T14:31:54;9.67;;;8.17;;
13975;SDS011;7062;49.792;9.946;2024-03-08T14:34:24;9.37;;;8.30;;
13975;SDS011;7062;49.792;9.946;2024-03-08T14:36:52;8.67;;;7.87;;
13975;SDS011;7062;49.792;9.946;2024-03-08T14:39:18;11.27;;;9.57;;
13975;SDS011;7062;49.792;9.946;2024-03-08T14:41:47;8.90;;;8.00;;
13975;SDS011;7062;49.792;9.946;2024-03-08T14:44:13;8.83;;;8.03;;
13975;SDS011;7062;49.792;9.946;2024-03-08T14:46:39;9.70;;;8.80;;
13975;SDS011;7062;49.792;9.946;2024-03-08T14:49:07;9.17;;;8.27;;
13975;SDS011;7062;49.792;9.946;2024-03-08T14:51:33;9.60;;;8.57;;